createdAt,value
2018-07-11T08:17:00.440Z,3.97
2018-07-11T08:19:29.056Z,3.53
2018-07-11T08:23:19.144Z,3.43
2018-07-11T08:25:59.333Z,3.33
2018-07-11T08:29:43.737Z,3.33
2018-07-11T08:32:27.844Z,3.57
2018-07-11T08:35:03.658Z,3.40
2018-07-11T08:37:44.934Z,3.77
2018-07-11T08:40:47.729Z,3.10
2018-07-11T08:43:42.308Z,3.30
2018-07-11T08:46:20.818Z,3.03
2018-07-11T08:50:06.015Z,3.87
2018-07-11T08:53:13.178Z,3.80
2018-07-11T08:55:55.928Z,3.43
2018-07-11T08:59:03.501Z,4.07
2018-07-11T09:01:46.117Z,3.37
2018-07-11T09:04:24.649Z,3.93
2018-07-11T09:07:09.140Z,3.70
2018-07-11T09:09:47.606Z,3.40
2018-07-11T09:12:27.595Z,3.00
2018-07-11T09:17:13.376Z,3.00
2018-07-11T09:21:55.964Z,2.53
2018-07-11T09:24:42.055Z,2.43
2018-07-11T09:27:09.944Z,2.43
2018-07-11T09:29:37.962Z,2.33
2018-07-11T09:32:05.347Z,2.30
2018-07-11T09:34:32.805Z,2.30
2018-07-11T09:37:00.125Z,2.67
2018-07-11T09:39:27.472Z,2.60
2018-07-11T09:41:54.889Z,2.23
2018-07-11T09:44:22.571Z,2.73
2018-07-11T09:46:50.309Z,2.30
2018-07-11T09:49:17.636Z,2.10
2018-07-11T09:51:44.987Z,1.90
2018-07-11T09:54:12.289Z,2.47
2018-07-11T09:56:40.078Z,2.23
2018-07-11T09:59:07.396Z,2.33
2018-07-11T10:01:34.714Z,2.27
2018-07-11T10:04:02.861Z,1.90
2018-07-11T10:06:30.508Z,2.57
2018-07-11T10:08:58.913Z,1.83
2018-07-11T10:11:26.242Z,2.00
2018-07-11T10:13:53.600Z,1.97
2018-07-11T10:16:20.896Z,2.23
2018-07-11T10:18:57.908Z,1.97
2018-07-11T10:21:25.599Z,2.53
2018-07-11T10:23:53.600Z,2.30
2018-07-11T10:26:21.195Z,1.97
2018-07-11T10:28:48.597Z,2.20
2018-07-11T10:31:16.094Z,2.33
2018-07-11T10:33:43.499Z,2.40
2018-07-11T10:36:10.982Z,2.50
2018-07-11T10:38:38.318Z,2.10
2018-07-11T10:41:06.379Z,2.17
2018-07-11T10:43:33.834Z,2.10
2018-07-11T10:46:01.168Z,2.60
2018-07-11T10:48:28.511Z,2.70
2018-07-11T10:50:56.154Z,2.30
2018-07-11T10:53:23.516Z,2.50
2018-07-11T10:55:50.852Z,2.40
2018-07-11T10:58:18.188Z,2.80
2018-07-11T11:01:05.032Z,2.50
2018-07-11T11:03:13.089Z,2.20
2018-07-11T11:05:40.478Z,2.60
2018-07-11T11:08:08.123Z,2.53
2018-07-11T11:10:35.405Z,2.60
2018-07-11T11:13:02.959Z,2.90
2018-07-11T11:15:30.414Z,2.43
2018-07-11T11:17:58.308Z,2.73
2018-07-11T11:20:25.849Z,2.97
2018-07-11T11:22:53.208Z,3.43
2018-07-11T11:25:20.528Z,2.87
2018-07-11T11:27:47.895Z,2.97
2018-07-11T11:30:16.355Z,2.67
2018-07-11T11:32:44.079Z,3.00
2018-07-11T11:35:11.450Z,2.90
2018-07-11T11:37:39.014Z,2.83
2018-07-11T11:40:06.539Z,2.77
2018-07-11T11:42:34.316Z,2.83
2018-07-11T11:45:01.586Z,2.57
2018-07-11T11:47:29.051Z,2.40
2018-07-11T11:49:57.089Z,2.83
2018-07-11T11:52:24.977Z,2.73
2018-07-11T11:54:52.908Z,3.17
2018-07-11T11:57:20.557Z,3.00
2018-07-11T11:59:48.051Z,3.03
2018-07-11T12:02:15.382Z,3.17
2018-07-11T12:04:42.946Z,3.20
2018-07-11T12:07:10.639Z,3.43
2018-07-11T12:09:38.025Z,2.90
2018-07-11T12:12:05.399Z,2.70
2018-07-11T12:14:33.415Z,3.00
2018-07-11T12:17:01.145Z,2.70
2018-07-11T12:19:28.837Z,2.73
2018-07-11T12:21:56.236Z,2.70
2018-07-11T12:24:23.649Z,2.63
2018-07-11T12:26:51.013Z,2.53
2018-07-11T12:29:18.463Z,2.37
2018-07-11T12:31:45.919Z,2.80
2018-07-11T12:34:13.292Z,2.60
2018-07-11T12:36:41.201Z,2.70
2018-07-11T12:39:08.624Z,2.93
2018-07-11T12:41:36.275Z,2.77
2018-07-11T12:44:03.853Z,2.83
2018-07-11T12:46:31.318Z,2.83
2018-07-11T12:49:00.775Z,2.67
2018-07-11T12:51:28.139Z,2.87
2018-07-11T12:53:55.493Z,2.60
2018-07-11T12:56:22.941Z,2.83
2018-07-11T12:58:50.253Z,3.10
2018-07-11T13:01:17.807Z,2.80
2018-07-11T13:03:45.310Z,2.90
2018-07-11T13:06:12.705Z,2.63
2018-07-11T13:08:40.175Z,2.77
2018-07-11T13:11:07.583Z,3.30
2018-07-11T13:13:34.885Z,3.10
2018-07-11T13:16:02.209Z,2.50
2018-07-11T13:18:29.607Z,3.13
2018-07-11T13:20:57.006Z,2.97
2018-07-11T13:23:24.369Z,2.63
2018-07-11T13:25:51.760Z,2.80
2018-07-11T13:28:19.089Z,2.70
2018-07-11T13:30:46.546Z,2.80
2018-07-11T13:33:14.112Z,3.57
2018-07-11T13:35:42.304Z,3.00
2018-07-11T13:38:10.886Z,3.20
2018-07-11T13:40:38.569Z,2.80
2018-07-11T13:43:06.221Z,3.37
2018-07-11T13:45:33.660Z,3.10
2018-07-11T13:48:02.661Z,2.70
2018-07-11T13:50:31.021Z,2.90
2018-07-11T13:52:59.411Z,2.90
2018-07-11T13:55:27.211Z,3.10
2018-07-11T13:57:55.692Z,3.13
2018-07-11T14:00:23.147Z,2.73
2018-07-11T14:02:51.221Z,2.80
2018-07-11T14:05:18.649Z,2.60
2018-07-11T14:07:46.223Z,2.80
2018-07-11T14:10:13.822Z,2.90
2018-07-11T14:12:41.303Z,2.80
2018-07-11T14:15:08.834Z,2.70
2018-07-11T14:17:36.251Z,2.50
2018-07-11T14:20:04.401Z,2.67
2018-07-11T14:22:31.879Z,2.87
2018-07-11T14:25:00.303Z,2.93
2018-07-11T14:27:28.391Z,3.20
2018-07-11T14:29:56.023Z,3.03
2018-07-11T14:32:25.904Z,2.73
2018-07-11T14:34:53.235Z,3.30
2018-07-11T14:37:20.616Z,2.80
2018-07-11T14:39:48.044Z,2.83
2018-07-11T14:42:15.420Z,3.20
2018-07-11T14:44:43.490Z,2.57
2018-07-11T14:48:15.225Z,2.77
2018-07-11T14:50:42.770Z,3.00
2018-07-11T14:53:10.324Z,2.97
2018-07-11T14:55:37.722Z,2.93
2018-07-11T14:58:05.126Z,2.90
2018-07-11T15:00:32.536Z,2.60
2018-07-11T15:03:00.407Z,2.90
2018-07-11T15:05:27.893Z,2.80
2018-07-11T15:07:55.383Z,2.80
2018-07-11T15:10:22.795Z,2.60
2018-07-11T15:12:50.373Z,2.77
2018-07-11T15:15:17.822Z,3.10
2018-07-11T15:17:45.153Z,2.87
2018-07-11T15:20:12.446Z,3.13
2018-07-11T15:22:39.867Z,2.80
2018-07-11T15:25:07.194Z,3.00
2018-07-11T15:27:34.622Z,2.80
2018-07-11T15:30:02.246Z,2.60
2018-07-11T15:32:29.637Z,2.70
2018-07-11T15:34:57.051Z,2.47
2018-07-11T15:37:24.620Z,2.70
2018-07-11T15:39:52.484Z,3.87
2018-07-11T15:42:20.100Z,4.10
2018-07-11T15:44:47.568Z,3.87
2018-07-11T15:47:14.914Z,3.70
2018-07-11T15:49:42.425Z,3.60
2018-07-11T15:52:10.627Z,3.40
2018-07-11T15:54:38.697Z,3.30
2018-07-11T15:57:06.468Z,3.60
2018-07-11T15:59:39.096Z,3.60
2018-07-11T16:02:06.577Z,3.60
2018-07-11T16:04:37.326Z,3.20
2018-07-11T16:07:06.836Z,3.70
2018-07-11T16:09:41.732Z,3.40
2018-07-11T16:12:09.374Z,3.73
2018-07-11T16:14:36.929Z,3.87
2018-07-11T16:17:04.406Z,3.70
2018-07-11T16:19:31.968Z,3.90
2018-07-11T16:22:00.356Z,4.10
2018-07-11T16:24:27.863Z,4.57
2018-07-11T16:26:55.278Z,4.20
2018-07-11T16:29:22.720Z,4.30
2018-07-11T16:31:50.327Z,4.20
2018-07-11T16:34:17.717Z,4.40
2018-07-11T16:36:45.099Z,4.13
2018-07-11T16:39:12.464Z,4.40
2018-07-11T16:41:39.874Z,4.90
2018-07-11T16:44:07.341Z,4.93
2018-07-11T16:46:34.740Z,5.03
2018-07-11T16:49:02.215Z,5.00
2018-07-11T16:51:30.366Z,5.37
2018-07-11T16:53:58.056Z,5.57
2018-07-11T16:56:25.469Z,6.10
2018-07-11T16:58:58.831Z,5.47
2018-07-11T17:01:31.610Z,6.10
2018-07-11T17:03:59.612Z,6.30
2018-07-11T17:06:27.010Z,6.27
2018-07-11T17:08:54.602Z,6.03
2018-07-11T17:11:26.189Z,6.40
2018-07-11T17:13:56.389Z,6.30
2018-07-11T17:16:34.044Z,6.40
2018-07-11T17:19:04.159Z,7.07
2018-07-11T17:21:38.040Z,6.23
2018-07-11T17:24:07.581Z,7.27
2018-07-11T17:26:36.145Z,6.87
2018-07-11T17:29:03.707Z,7.20
2018-07-11T17:31:33.227Z,7.30
2018-07-11T17:34:00.781Z,7.33
2018-07-11T17:36:30.289Z,7.10
2018-07-11T17:38:57.771Z,7.60
2018-07-11T17:41:25.273Z,6.70
2018-07-11T17:43:52.794Z,6.47
2018-07-11T17:46:22.282Z,6.80
2018-07-11T17:49:00.123Z,6.37
2018-07-11T17:51:44.803Z,7.13
2018-07-11T17:54:12.249Z,6.27
2018-07-11T17:56:48.885Z,6.23
2018-07-11T17:59:20.943Z,6.80
2018-07-11T18:01:50.707Z,7.00
2018-07-11T18:04:28.529Z,7.70
2018-07-11T18:07:02.828Z,7.07
2018-07-11T18:10:05.951Z,7.57
2018-07-11T18:12:41.012Z,7.10
2018-07-11T18:15:28.697Z,6.80
2018-07-11T18:18:11.590Z,6.73
2018-07-11T18:20:48.096Z,6.83
2018-07-11T18:23:23.290Z,7.07
2018-07-11T18:28:09.241Z,7.37
2018-07-11T18:30:54.004Z,6.93
2018-07-11T18:33:39.471Z,7.67
2018-07-11T18:36:33.020Z,7.30
2018-07-11T18:39:48.474Z,7.50
2018-07-11T18:42:43.742Z,7.00
2018-07-11T18:45:16.370Z,8.67
2018-07-11T18:49:56.749Z,7.80
2018-07-11T18:52:31.174Z,8.17
2018-07-11T18:57:12.995Z,7.60
2018-07-11T19:00:04.843Z,7.70
2018-07-11T19:03:39.360Z,7.83
2018-07-11T19:06:31.697Z,7.67
2018-07-11T19:09:07.642Z,7.87
2018-07-11T19:11:58.346Z,7.47
2018-07-11T19:14:36.488Z,7.13
2018-07-11T19:17:11.025Z,8.40
2018-07-11T19:19:47.272Z,7.63
2018-07-11T19:22:30.764Z,7.77
2018-07-11T19:25:07.445Z,8.17
2018-07-11T19:27:47.940Z,7.80
2018-07-11T19:31:59.488Z,8.10
2018-07-11T19:34:56.131Z,7.33
2018-07-11T19:37:40.486Z,8.07
2018-07-11T19:40:16.658Z,7.87
2018-07-11T19:42:58.726Z,7.10
2018-07-11T19:47:40.708Z,7.80
2018-07-11T19:52:21.903Z,7.53
2018-07-11T19:57:01.661Z,7.97
2018-07-11T19:59:29.138Z,8.17
2018-07-11T20:01:56.665Z,7.33
2018-07-11T20:04:24.203Z,7.03
2018-07-11T20:06:51.611Z,8.00
2018-07-11T20:09:19.970Z,6.57
2018-07-11T20:11:47.369Z,8.00
2018-07-11T20:14:14.722Z,7.43
2018-07-11T20:16:42.156Z,7.57
2018-07-11T20:19:09.374Z,7.23
2018-07-11T20:21:36.742Z,7.67
2018-07-11T20:24:04.083Z,7.67
2018-07-11T20:26:31.385Z,8.27
2018-07-11T20:28:59.541Z,7.43
2018-07-11T20:31:26.866Z,8.23
2018-07-11T20:33:54.199Z,8.20
2018-07-11T20:36:21.592Z,7.20
2018-07-11T20:38:48.899Z,8.17
2018-07-11T20:41:16.325Z,8.33
2018-07-11T20:43:44.717Z,7.87
2018-07-11T20:46:12.098Z,7.80
2018-07-11T20:48:39.770Z,8.23
2018-07-11T20:51:07.747Z,7.70
2018-07-11T20:53:35.183Z,7.67
2018-07-11T20:56:02.582Z,8.53
2018-07-11T20:58:41.077Z,8.10
2018-07-11T21:01:19.711Z,8.27
2018-07-11T21:08:06.278Z,7.57
2018-07-11T21:10:59.505Z,7.73
2018-07-11T21:13:38.111Z,7.87
2018-07-11T21:16:16.656Z,7.87
2018-07-11T21:18:58.114Z,7.73
2018-07-11T21:21:25.537Z,7.00
2018-07-11T21:23:52.904Z,8.00
2018-07-11T21:26:20.455Z,8.50
2018-07-11T21:28:47.763Z,8.73
2018-07-11T21:31:15.098Z,7.13
2018-07-11T21:33:42.407Z,8.60
2018-07-11T21:36:09.659Z,7.80
2018-07-11T21:38:36.930Z,8.03
2018-07-11T21:41:04.252Z,8.17
2018-07-11T21:43:31.493Z,9.03
2018-07-11T21:45:58.865Z,7.30
2018-07-11T21:48:26.609Z,8.77
2018-07-11T21:50:53.888Z,9.43
2018-07-11T21:53:21.187Z,8.90
2018-07-11T21:55:48.616Z,9.00
2018-07-11T21:58:16.254Z,9.33
2018-07-11T22:00:43.638Z,10.17
2018-07-11T22:03:10.999Z,9.37
2018-07-11T22:05:38.290Z,10.03
2018-07-11T22:08:08.300Z,10.40
2018-07-11T22:10:37.825Z,10.83
2018-07-11T22:13:05.413Z,11.10
2018-07-11T22:15:32.800Z,10.30
2018-07-11T22:18:11.503Z,10.60
2018-07-11T22:20:37.744Z,11.27
2018-07-11T22:23:04.119Z,10.60
2018-07-11T22:25:30.950Z,10.83
2018-07-11T22:27:57.282Z,10.43
2018-07-11T22:30:23.709Z,10.57
2018-07-11T22:32:49.999Z,10.60
2018-07-11T22:35:16.375Z,9.97
2018-07-11T22:37:42.720Z,10.57
2018-07-11T22:40:09.179Z,11.17
2018-07-11T22:42:35.462Z,11.30
2018-07-11T22:45:01.831Z,10.53
2018-07-11T22:47:28.606Z,10.73
2018-07-11T22:50:01.628Z,10.27
2018-07-11T22:52:30.981Z,12.13
2018-07-11T22:54:57.563Z,10.83
2018-07-11T22:57:23.792Z,11.20
2018-07-11T22:59:50.750Z,10.70
2018-07-11T23:02:17.154Z,11.47
2018-07-11T23:04:43.438Z,8.50
2018-07-11T23:07:09.900Z,10.97
2018-07-11T23:09:36.143Z,11.13
2018-07-11T23:12:03.208Z,10.83
2018-07-11T23:14:29.894Z,12.07
2018-07-11T23:16:57.043Z,10.73
2018-07-11T23:19:23.402Z,11.37
2018-07-11T23:21:49.669Z,10.07
2018-07-11T23:24:15.867Z,11.43
2018-07-11T23:26:42.169Z,11.43
2018-07-11T23:29:08.411Z,9.83
2018-07-11T23:31:34.683Z,10.77
2018-07-11T23:34:00.902Z,11.70
2018-07-11T23:36:27.105Z,11.57
2018-07-11T23:38:53.317Z,11.77
2018-07-11T23:41:19.552Z,12.60
2018-07-11T23:43:45.804Z,12.40
2018-07-11T23:46:12.032Z,13.40
2018-07-11T23:48:38.249Z,12.97
2018-07-11T23:51:04.535Z,11.50
2018-07-11T23:53:30.881Z,11.80
2018-07-11T23:55:57.162Z,11.70
2018-07-11T23:58:23.514Z,9.23
